Northfield Village, Ohio
Current Conditions -  °F | °C
As of 11:53 AM on Wednesday 26 Nov 2014 (Local Time) from KBKL Reporting Station
Overcast Overcast  
Wind Chill: 30°   Ceiling: 3600
Heat Index: 37°   Visibility: 10mi
Dew Point: 25°   Wind: 9mph
Humidity: 62%   Direction: 70°ENE
Pressure: 30.11"   Gusts: NA
Location:  41.3128°N, 81.5476°W
Report Text: KBKL 261653Z 07008KT 10SM OVC036 03/M04 A3011 RMK AO2 SLP201 T00281039
Loading
Personal Weather Stations






























Interactive Weather Map New forecast layout! Learn more

10-Day Weather Forecast

Advertisements
Track Severe Weather on mobile